Map

Track Data

SID SEASON NUMBER BASIN SUBBASIN NAME ISO_TIME NATURE LAT LON WMO_WIND WMO_PRES WMO_AGENCY TRACK_TYPE DIST2LAND LANDFALL IFLAG USA_AGENCY USA_ATCF_ID USA_LAT USA_LON USA_RECORD USA_STATUS USA_WIND USA_PRES USA_SSHS USA_R34_NE USA_R34_SE USA_R34_SW USA_R34_NW USA_R50_NE USA_R50_SE USA_R50_SW USA_R50_NW USA_R64_NE USA_R64_SE USA_R64_SW USA_R64_NW USA_POCI USA_ROCI USA_RMW USA_EYE TOKYO_LAT TOKYO_LON TOKYO_GRADE TOKYO_WIND TOKYO_PRES TOKYO_R50_DIR TOKYO_R50_LONG TOKYO_R50_SHORT TOKYO_R30_DIR TOKYO_R30_LONG TOKYO_R30_SHORT TOKYO_LAND CMA_LAT CMA_LON CMA_CAT CMA_WIND CMA_PRES HKO_LAT HKO_LON HKO_CAT HKO_WIND HKO_PRES NEWDELHI_LAT NEWDELHI_LON NEWDELHI_GRADE NEWDELHI_WIND NEWDELHI_PRES NEWDELHI_CI NEWDELHI_DP NEWDELHI_POCI REUNION_LAT REUNION_LON REUNION_TYPE REUNION_WIND REUNION_PRES REUNION_TNUM REUNION_CI REUNION_RMW REUNION_R34_NE REUNION_R34_SE REUNION_R34_SW REUNION_R34_NW REUNION_R50_NE REUNION_R50_SE REUNION_R50_SW REUNION_R50_NW REUNION_R64_NE REUNION_R64_SE REUNION_R64_SW REUNION_R64_NW BOM_LAT BOM_LON BOM_TYPE BOM_WIND BOM_PRES BOM_TNUM BOM_CI BOM_RMW BOM_R34_NE BOM_R34_SE BOM_R34_SW BOM_R34_NW BOM_R50_NE BOM_R50_SE BOM_R50_SW BOM_R50_NW BOM_R64_NE BOM_R64_SE BOM_R64_SW BOM_R64_NW BOM_ROCI BOM_POCI BOM_EYE BOM_POS_METHOD BOM_PRES_METHOD NADI_LAT NADI_LON NADI_CAT NADI_WIND NADI_PRES WELLINGTON_LAT WELLINGTON_LON WELLINGTON_WIND WELLINGTON_PRES DS824_LAT DS824_LON DS824_STAGE DS824_WIND DS824_PRES TD9636_LAT TD9636_LON TD9636_STAGE TD9636_WIND TD9636_PRES TD9635_LAT TD9635_LON TD9635_WIND TD9635_PRES TD9635_ROCI NEUMANN_LAT NEUMANN_LON NEUMANN_CLASS NEUMANN_WIND NEUMANN_PRES MLC_LAT MLC_LON MLC_CLASS MLC_WIND MLC_PRES USA_GUST BOM_GUST BOM_GUST_PER REUNION_GUST REUNION_GUST_PER USA_SEAHGT USA_SEARAD_NE USA_SEARAD_SE USA_SEARAD_SW USA_SEARAD_NW STORM_SPEED STORM_DIR
1965222S08092 1966 69 SI WA NOT_NAMED 1965-08-09 18:00:00 TS -7.50000 91.6000 main 1038 1038 O________OO___ jtwc_sh SH011966 -7.50000 91.6000 -1 -7.50000 91.6000 TC -7.50000 91.6000 7 9 257
1965222S08092 1966 69 SI WA NOT_NAMED 1965-08-09 21:00:00 TS -7.60534 91.1413 main 1088 1088 P________PP___ SH011966 -7.59763 91.1250 -1 -7.59763 91.1250 TC -7.62075 91.1737 7 9 256
1965222S08092 1966 69 SI WA NOT_NAMED 1965-08-10 00:00:00 TS -7.71100 90.7226 main 1130 1130 O________OP___ jtwc_sh SH011966 -7.70000 90.7000 -1 -7.70000 90.7000 TC -7.73301 90.7678 7 8 255
1965222S08092 1966 69 SI WA NOT_NAMED 1965-08-10 03:00:00 TS -7.81455 90.3760 main 1164 1164 P________PP___ SH011966 -7.80745 90.3625 -1 -7.80745 90.3625 TC -7.82874 90.4030 7 6 253
1965222S08092 1966 69 SI WA NOT_NAMED 1965-08-10 06:00:00 TS -7.90000 90.1000 main 1197 1197 O________OO___ jtwc_sh SH011966 -7.90000 90.1000 -1 -7.90000 90.1000 TC 25 -7.90000 90.1000 7 5 254
1965222S08092 1966 69 SI MM NOT_NAMED 1965-08-10 09:00:00 TS -7.95741 89.8755 main 1222 1222 P________PP___ SH011966 -7.96497 89.8775 -1 -7.96497 89.8775 TC 25 -7.94229 89.8715 7 4 257
1965222S08092 1966 69 SI MM NOT_NAMED 1965-08-10 12:00:00 TS -7.98825 89.6991 main 1240 1240 O________OP___ jtwc_sh SH011966 -8.00000 89.7000 -1 -8.00000 89.7000 TC 25 -7.96474 89.6974 7 3 264
1965222S08092 1966 69 SI MM NOT_NAMED 1965-08-10 15:00:00 TS -7.99326 89.5499 main 1258 1258 P________PP___ SH011966 -7.99998 89.5500 -1 -7.99998 89.5500 TC 25 -7.97983 89.5496 7 3 268
1965222S08092 1966 69 SI MM NOT_NAMED 1965-08-10 18:00:00 TS -8.00000 89.4000 main 1267 1267 O________OO___ jtwc_sh SH011966 -8.00000 89.4000 -1 -8.00000 89.4000 TC 25 -8.00000 89.4000 1 3 262
1965222S08092 1966 69 SI MM NOT_NAMED 1965-08-10 21:00:00 TS -8.03848 89.2209 main 1286 1286 P________PP___ SH011966 -8.04250 89.2075 -1 -8.04250 89.2075 TC 25 -8.03043 89.2477 1 4 256
1965222S08092 1966 69 SI MM NOT_NAMED 1965-08-11 00:00:00 TS -8.08989 89.0274 main 1310 1310 O________OP___ jtwc_sh SH011966 -8.10000 89.0000 -1 -8.10000 89.0000 TC 25 -8.06967 89.0823 1 4 255
1965222S08092 1966 69 SI MM NOT_NAMED 1965-08-11 03:00:00 TS -8.13632 88.8452 main 1329 1329 P________PP___ SH011966 -8.14243 88.8300 -1 -8.14243 88.8300 TC 25 -8.12409 88.8757 1 4 255
1965222S08092 1966 69 SI MM NOT_NAMED 1965-08-11 06:00:00 TS -8.20000 88.6000 main 1354 1354 O________OO___ jtwc_sh SH011966 -8.20000 88.6000 -1 -8.20000 88.6000 TC 25 -8.20000 88.6000 1 6 256
1965222S08092 1966 69 SI MM NOT_NAMED 1965-08-11 09:00:00 TS -8.28986 88.2346 main 1397 1397 P________PP___ SH011966 -8.28498 88.2450 -1 -8.28498 88.2450 TC 25 -8.29960 88.2138 1 8 256
1965222S08092 1966 69 SI MM NOT_NAMED 1965-08-11 12:00:00 TS -8.40677 87.7867 main 1441 1441 O________OP___ jtwc_sh SH011966 -8.40000 87.8000 -1 -8.40000 87.8000 TC 25 -8.42031 87.7600 1 10 255
1965222S08092 1966 69 SI MM NOT_NAMED 1965-08-11 15:00:00 TS -8.54697 87.2921 main 1494 1494 P________PP___ SH011966 -8.54254 87.3000 -1 -8.54254 87.3000 TC 25 -8.55583 87.2763 1 10 253
1965222S08092 1966 69 SI MM NOT_NAMED 1965-08-11 18:00:00 TS -8.70000 86.8000 main 1553 1553 O________OO___ jtwc_sh SH011966 -8.70000 86.8000 -1 -8.70000 86.8000 TC 25 -8.70000 86.8000 1 9 251
1965222S08092 1966 69 SI MM NOT_NAMED 1965-08-11 21:00:00 TS -8.84465 86.3986 main 1596 1596 P________PP___ SH011966 -8.84991 86.3850 -1 -8.84991 86.3850 TC 25 -8.83413 86.4259 1 8 249
1965222S08092 1966 69 SI MM NOT_NAMED 1965-08-12 00:00:00 TS -8.99221 86.0198 main 1646 1646 O________OP___ jtwc_sh SH011966 -9.00000 86.0000 -1 -9.00000 86.0000 TC 25 -8.97664 86.0594 1 8 248
1965222S08092 1966 69 SI MM NOT_NAMED 1965-08-12 03:00:00 TS -9.13850 85.6460 main 1690 1690 P________PP___ SH011966 -9.14231 85.6374 -1 -9.14231 85.6374 TC 25 -9.13087 85.6633 1 9 249
1965222S08092 1966 69 SI MM NOT_NAMED 1965-08-12 06:00:00 TS -9.30000 85.2000 main 1739 1739 O________OO___ jtwc_sh SH011966 -9.30000 85.2000 -1 -9.30000 85.2000 TC 25 -9.30000 85.2000 1 11 251
1965222S08092 1966 69 SI MM NOT_NAMED 1965-08-12 09:00:00 TS -9.48769 84.5922 main 1781 1776 P________PP___ SH011966 -9.49256 84.5875 -1 -9.49256 84.5875 TC 25 -9.47795 84.6016 1 13 253
1965222S08092 1966 69 SI MM NOT_NAMED 1965-08-12 12:00:00 TS -9.69022 83.9125 main 1785 1781 O________OP___ jtwc_sh SH011966 -9.70000 83.9000 -1 -9.70000 83.9000 TC 25 -9.67065 83.9375 1 14 253
1965222S08092 1966 69 SI MM NOT_NAMED 1965-08-12 15:00:00 TS -9.88764 83.2365 main 1793 1791 P________PP___ SH011966 -9.89249 83.2274 -1 -9.89249 83.2274 TC 25 -9.87794 83.2546 1 14 252
1965222S08092 1966 69 SI MM NOT_NAMED 1965-08-12 18:00:00 TS -10.1000 82.6000 main 1806 1805 O________OO___ jtwc_sh SH011966 -10.1000 82.6000 -1 -10.1000 82.6000 TC 25 -10.1000 82.6000 1 12 249
1965222S08092 1966 69 SI MM NOT_NAMED 1965-08-12 21:00:00 TS -10.3358 82.0708 main 1822 1821 P________PP___ SH011966 -10.3423 82.0849 -1 -10.3423 82.0849 TC 25 -10.3228 82.0427 1 11 244
1965222S08092 1966 69 SI MM NOT_NAMED 1965-08-13 00:00:00 TS -10.5872 81.5731 main 1852 1851 O________OP___ jtwc_sh SH011966 -10.6000 81.6000 -1 -10.6000 81.6000 TC 25 -10.5617 81.5194 1 11 244
1965222S08092 1966 69 SI MM NOT_NAMED 1965-08-13 03:00:00 TS -10.8349 81.0420 main 1871 1871 P________PP___ SH011966 -10.8424 81.0574 -1 -10.8424 81.0574 TC 25 -10.8197 81.0114 1 12 244
1965222S08092 1966 69 SI MM NOT_NAMED 1965-08-13 06:00:00 TS -11.1000 80.5000 main 1904 1904 O________OO___ jtwc_sh SH011966 -11.1000 80.5000 -1 -11.1000 80.5000 TC 25 -11.1000 80.5000 1 12 243
1965222S08092 1966 69 SI MM NOT_NAMED 1965-08-13 09:00:00 TS -11.3897 79.9482 main 1939 1939 P________PP___ SH011966 -11.3849 79.9499 -1 -11.3849 79.9499 TC 25 -11.3993 79.9449 1 12 241
1965222S08092 1966 69 SI MM NOT_NAMED 1965-08-13 12:00:00 TS -11.7066 79.3950 main 1976 1976 O________OP___ jtwc_sh SH011966 -11.7000 79.4000 -1 -11.7000 79.4000 TC 25 -11.7199 79.3849 1 13 239
1965222S08092 1966 69 SI MM NOT_NAMED 1965-08-13 15:00:00 TS -12.0468 78.8391 main 2015 2015 P________PP___ SH011966 -12.0424 78.8424 -1 -12.0424 78.8424 TC 25 -12.0556 78.8323 1 13 237
1965222S08092 1966 69 SI MM NOT_NAMED 1965-08-13 18:00:00 TS -12.4000 78.3000 main 2066 2066 O________OO___ jtwc_sh SH011966 -12.4000 78.3000 -1 -12.4000 78.3000 TC 25 -12.4000 78.3000 1 12 236
1965222S08092 1966 69 SI MM NOT_NAMED 1965-08-13 21:00:00 TS -12.7493 77.7889 main 2106 2106 P________PP___ SH011966 -12.7499 77.7849 -1 -12.7499 77.7849 TC 25 -12.7480 77.7970 1 12 234
1965222S08092 1966 69 SI MM NOT_NAMED 1965-08-14 00:00:00 TS -13.0993 77.3061 main 2159 2159 O________OP___ jtwc_sh SH011966 -13.1000 77.3000 -1 -13.1000 77.3000 TC 25 -13.0979 77.3184 1 12 233
1965222S08092 1966 69 SI MM NOT_NAMED 1965-08-14 03:00:00 TS -13.4497 76.8470 main 2162 2105 P________PP___ SH011966 -13.4501 76.8428 -1 -13.4501 76.8428 TC 25 -13.4489 76.8556 1 11 232
1965222S08092 1966 69 SI MM NOT_NAMED 1965-08-14 06:00:00 TS -13.8000 76.4000 main 2105 O________OO___ jtwc_sh SH011966 -13.8000 76.4000 -1 -13.8000 76.4000 TC 25 -13.8000 76.4000 1 11 231

About IBTrACS Database

This database is a web-friendly format of International Best Track Archive for Climate Stewardship (IBTrACS), a global best track data archive curated by NOAA dating back to 1842.

Updated: 2021-12-03